createdAt,value
2022-12-19T00:01:35.015Z,94.05
2022-12-19T00:04:08.280Z,98.70
2022-12-19T00:06:38.078Z,88.53
2022-12-19T00:09:10.422Z,67.95
2022-12-19T00:11:38.829Z,104.07
2022-12-19T00:14:06.977Z,72.28
2022-12-19T00:16:33.847Z,74.05
2022-12-19T00:19:01.453Z,86.25
2022-12-19T00:21:34.734Z,96.57
2022-12-19T00:24:10.463Z,114.47
2022-12-19T00:26:47.852Z,136.40
2022-12-19T00:29:16.791Z,139.23
2022-12-19T00:31:43.660Z,128.00
2022-12-19T00:34:10.471Z,130.10
2022-12-19T00:36:37.493Z,105.88
2022-12-19T00:39:07.998Z,111.75
2022-12-19T00:41:37.072Z,136.10
2022-12-19T00:44:06.205Z,123.78
2022-12-19T00:46:34.957Z,146.32
2022-12-19T00:49:02.089Z,129.35
2022-12-19T00:51:30.682Z,111.28
2022-12-19T00:53:58.424Z,143.68
2022-12-19T00:56:30.596Z,107.22
2022-12-19T00:58:57.977Z,141.23
2022-12-19T01:01:27.797Z,111.30
2022-12-19T01:06:41.932Z,128.35
2022-12-19T01:09:11.399Z,142.63
2022-12-19T01:11:57.240Z,144.40
2022-12-19T01:14:24.048Z,157.40
2022-12-19T01:16:51.810Z,160.98
2022-12-19T01:19:18.875Z,163.18
2022-12-19T01:21:45.493Z,117.50
2022-12-19T01:24:12.533Z,166.13
2022-12-19T01:26:40.339Z,142.70
2022-12-19T01:29:07.192Z,162.60
2022-12-19T01:31:34.144Z,159.95
2022-12-19T01:34:01.478Z,95.07
2022-12-19T01:36:28.646Z,149.35
2022-12-19T01:38:58.493Z,176.40
2022-12-19T01:41:25.474Z,100.53
2022-12-19T01:44:01.415Z,111.68
2022-12-19T01:49:02.738Z,109.22
2022-12-19T01:51:37.446Z,154.60
2022-12-19T01:54:08.544Z,127.47
2022-12-19T01:56:40.482Z,176.77
2022-12-19T01:59:14.238Z,125.22
2022-12-19T02:01:51.026Z,135.98
2022-12-19T02:04:20.011Z,119.63
2022-12-19T02:06:48.474Z,126.78
2022-12-19T02:09:15.900Z,150.68
2022-12-19T02:11:42.621Z,169.18
2022-12-19T02:14:09.498Z,133.77
2022-12-19T02:17:07.530Z,112.50
2022-12-19T02:20:05.154Z,133.07
2022-12-19T02:22:50.037Z,150.05
2022-12-19T02:25:47.309Z,136.38
2022-12-19T02:28:49.513Z,151.43
2022-12-19T02:31:19.001Z,115.80
2022-12-19T02:34:21.966Z,111.70
2022-12-19T02:37:05.675Z,91.47
2022-12-19T02:39:42.876Z,108.85
2022-12-19T02:42:14.382Z,155.05
2022-12-19T02:44:51.623Z,107.93
2022-12-19T02:47:20.882Z,134.15
2022-12-19T02:49:48.184Z,112.97
2022-12-19T02:52:20.675Z,109.13
2022-12-19T02:54:57.628Z,98.80
2022-12-19T02:57:58.272Z,111.00
2022-12-19T03:00:27.732Z,96.25
2022-12-19T03:03:17.344Z,115.20
2022-12-19T03:06:09.179Z,105.05
2022-12-19T03:08:46.922Z,138.50
2022-12-19T03:11:15.001Z,60.42
2022-12-19T03:13:48.443Z,111.43
2022-12-19T03:16:15.560Z,70.63
2022-12-19T03:18:42.891Z,93.63
2022-12-19T03:21:17.146Z,118.90
2022-12-19T03:23:45.906Z,114.82
2022-12-19T03:26:19.882Z,70.55
2022-12-19T03:29:09.387Z,78.72
2022-12-19T03:31:38.534Z,75.38
2022-12-19T03:34:13.477Z,111.63
2022-12-19T03:36:46.931Z,83.20
2022-12-19T03:39:14.743Z,83.45
2022-12-19T03:42:02.218Z,86.38
2022-12-19T03:44:33.840Z,94.35
2022-12-19T03:47:13.463Z,100.15
2022-12-19T03:49:40.429Z,91.53
2022-12-19T03:52:12.767Z,97.85
2022-12-19T03:54:44.198Z,93.88
2022-12-19T03:57:19.592Z,58.75
2022-12-19T04:00:00.455Z,90.40
2022-12-19T04:02:28.333Z,61.78
2022-12-19T04:05:01.816Z,58.72
2022-12-19T04:07:28.618Z,41.38
2022-12-19T04:09:58.183Z,71.43
2022-12-19T04:12:30.604Z,93.38
2022-12-19T04:14:57.380Z,86.05
2022-12-19T04:17:39.585Z,64.45
2022-12-19T04:20:12.619Z,70.40
2022-12-19T04:22:45.485Z,102.00
2022-12-19T04:25:16.305Z,71.85
2022-12-19T04:27:53.875Z,77.68
2022-12-19T04:30:20.789Z,73.90
2022-12-19T04:32:49.916Z,66.75
2022-12-19T04:35:16.874Z,76.93
2022-12-19T04:37:43.667Z,94.32
2022-12-19T04:40:10.990Z,80.18
2022-12-19T04:42:37.620Z,57.85
2022-12-19T04:45:05.739Z,87.80
2022-12-19T04:47:32.895Z,86.38
2022-12-19T04:49:59.499Z,90.18
2022-12-19T04:52:26.126Z,48.30
2022-12-19T04:54:52.715Z,65.72
2022-12-19T04:57:19.428Z,89.32
2022-12-19T04:59:46.023Z,84.63
2022-12-19T05:02:12.881Z,78.65
2022-12-19T05:04:39.540Z,82.25
2022-12-19T05:07:06.112Z,55.03
2022-12-19T05:09:32.676Z,67.97
2022-12-19T05:11:59.284Z,90.97
2022-12-19T05:14:26.316Z,72.00
2022-12-19T05:16:55.995Z,72.40
2022-12-19T05:19:27.319Z,81.85
2022-12-19T05:21:54.103Z,73.57
2022-12-19T05:24:21.602Z,87.28
2022-12-19T05:26:49.298Z,67.32
2022-12-19T05:29:16.452Z,59.58
2022-12-19T05:31:43.551Z,78.28
2022-12-19T05:34:10.185Z,49.03
2022-12-19T05:36:36.854Z,70.85
2022-12-19T05:39:03.517Z,67.70
2022-12-19T05:41:30.217Z,50.70
2022-12-19T05:43:56.846Z,66.35
2022-12-19T05:46:24.702Z,63.55
2022-12-19T05:48:51.727Z,65.50
2022-12-19T05:51:19.861Z,85.07
2022-12-19T05:53:46.555Z,71.38
2022-12-19T05:56:16.575Z,71.05
2022-12-19T05:58:43.836Z,60.13
2022-12-19T06:01:22.247Z,44.75
2022-12-19T06:03:49.395Z,68.30
2022-12-19T06:06:19.104Z,59.78
2022-12-19T06:08:45.793Z,63.53
2022-12-19T06:11:14.135Z,49.13
2022-12-19T06:13:42.289Z,38.15
2022-12-19T06:16:13.491Z,63.33
2022-12-19T06:18:44.852Z,53.00
2022-12-19T06:21:19.107Z,56.70
2022-12-19T06:23:46.424Z,47.20
2022-12-19T06:26:18.967Z,64.15
2022-12-19T06:28:47.128Z,59.05
2022-12-19T06:31:14.533Z,55.47
2022-12-19T06:33:41.826Z,42.30
2022-12-19T06:36:21.383Z,30.83
2022-12-19T06:38:49.800Z,51.80
2022-12-19T06:41:36.028Z,68.15
2022-12-19T06:44:06.218Z,32.35
2022-12-19T06:46:33.716Z,69.10
2022-12-19T06:49:01.331Z,54.35
2022-12-19T06:51:28.401Z,44.75
2022-12-19T06:53:55.644Z,28.73
2022-12-19T06:56:22.856Z,28.80
2022-12-19T06:58:50.635Z,62.17
2022-12-19T07:01:27.904Z,33.83
2022-12-19T07:03:55.295Z,38.08
2022-12-19T07:06:23.393Z,45.17
2022-12-19T07:08:50.214Z,25.05
2022-12-19T07:11:16.884Z,56.75
2022-12-19T07:13:43.933Z,36.88
2022-12-19T07:16:10.622Z,45.33
2022-12-19T07:18:39.981Z,45.88
2022-12-19T07:21:09.267Z,55.17
2022-12-19T07:23:36.143Z,52.80
2022-12-19T07:26:03.216Z,35.97
2022-12-19T07:28:29.818Z,54.22
2022-12-19T07:30:56.395Z,46.17
2022-12-19T07:33:22.975Z,57.85
2022-12-19T07:35:49.677Z,55.63
2022-12-19T07:38:16.455Z,51.33
2022-12-19T07:40:43.062Z,54.80
2022-12-19T07:43:09.978Z,54.63
2022-12-19T07:45:38.501Z,38.67
2022-12-19T07:48:06.523Z,34.38
2022-12-19T07:50:33.324Z,41.45
2022-12-19T07:52:59.984Z,44.90
2022-12-19T07:55:26.963Z,37.25
2022-12-19T07:57:54.001Z,45.80
2022-12-19T08:00:21.670Z,47.33
2022-12-19T08:02:48.741Z,36.70
2022-12-19T08:05:15.483Z,45.20
2022-12-19T08:07:42.286Z,55.67
2022-12-19T08:10:11.465Z,37.47
2022-12-19T08:12:38.382Z,49.67
2022-12-19T08:15:06.155Z,45.30
2022-12-19T08:17:34.588Z,31.38
2022-12-19T08:20:01.235Z,35.15
2022-12-19T08:22:30.370Z,34.47
2022-12-19T08:24:57.826Z,32.97
2022-12-19T08:27:25.038Z,44.85
2022-12-19T08:29:51.701Z,39.97
2022-12-19T08:32:21.201Z,29.67
2022-12-19T08:34:48.682Z,30.67
2022-12-19T08:37:15.338Z,36.00
2022-12-19T08:39:41.948Z,20.35
2022-12-19T08:42:08.557Z,27.30
2022-12-19T08:44:35.167Z,33.88
2022-12-19T08:47:02.818Z,36.42
2022-12-19T08:49:29.431Z,33.30
2022-12-19T08:51:56.106Z,30.67
2022-12-19T08:54:23.149Z,31.30
2022-12-19T08:56:49.821Z,34.83
2022-12-19T08:59:22.204Z,34.33
2022-12-19T09:01:57.639Z,36.72
2022-12-19T09:05:45.197Z,34.95
2022-12-19T09:07:11.159Z,41.95
2022-12-19T09:09:41.726Z,23.92
2022-12-19T09:12:08.322Z,41.10
2022-12-19T09:14:35.849Z,32.95
2022-12-19T09:17:03.355Z,35.95
2022-12-19T09:19:31.977Z,29.40
2022-12-19T09:21:59.338Z,34.42
2022-12-19T09:24:26.400Z,26.27
2022-12-19T09:26:53.258Z,26.13
2022-12-19T09:29:23.073Z,30.90
2022-12-19T09:31:56.519Z,20.55
2022-12-19T09:34:37.771Z,31.05
2022-12-19T09:37:11.657Z,23.23
2022-12-19T09:39:43.127Z,31.27
2022-12-19T09:42:41.395Z,29.40
2022-12-19T09:45:40.504Z,32.88
2022-12-19T09:48:17.789Z,22.65
2022-12-19T09:51:09.486Z,34.42
2022-12-19T09:53:54.095Z,20.30
2022-12-19T09:56:23.719Z,37.50
2022-12-19T09:58:57.225Z,31.25
2022-12-19T10:01:30.723Z,17.73
2022-12-19T10:04:08.977Z,24.08
2022-12-19T10:07:22.062Z,27.27
2022-12-19T10:12:44.784Z,29.83
2022-12-19T10:15:25.645Z,31.00
2022-12-19T10:18:01.070Z,27.80
2022-12-19T10:20:34.219Z,24.45
2022-12-19T10:23:19.042Z,26.50
2022-12-19T10:25:54.636Z,24.38
2022-12-19T10:28:27.044Z,20.95
2022-12-19T10:31:20.975Z,22.17
2022-12-19T10:34:15.289Z,25.60
2022-12-19T10:39:55.305Z,22.13
2022-12-19T10:42:40.168Z,27.30
2022-12-19T10:45:15.124Z,19.15
2022-12-19T10:47:42.647Z,29.70
2022-12-19T10:50:14.372Z,23.13
2022-12-19T10:53:04.280Z,36.78
2022-12-19T10:55:41.005Z,22.77
2022-12-19T10:58:35.196Z,28.63
2022-12-19T11:01:28.196Z,21.10
2022-12-19T11:04:13.816Z,22.48
2022-12-19T11:06:46.505Z,29.83
2022-12-19T11:09:31.413Z,24.02
2022-12-19T11:15:25.424Z,24.73
2022-12-19T11:21:07.788Z,26.88
2022-12-19T11:26:08.319Z,23.58
2022-12-19T11:29:45.548Z,24.30
2022-12-19T11:30:46.946Z,22.65
2022-12-19T11:33:22.130Z,22.52
2022-12-19T11:35:52.555Z,20.73
2022-12-19T11:38:42.513Z,21.63
2022-12-19T11:41:17.471Z,17.02
2022-12-19T11:43:55.902Z,25.77
2022-12-19T11:46:42.918Z,23.48
2022-12-19T11:49:28.907Z,23.63
2022-12-19T11:52:23.710Z,15.98
2022-12-19T11:55:06.200Z,25.00
2022-12-19T11:57:33.061Z,26.00
2022-12-19T12:00:04.675Z,22.95
2022-12-19T12:02:58.876Z,18.35
2022-12-19T12:05:49.483Z,21.90
2022-12-19T12:10:22.893Z,25.08
2022-12-19T12:15:50.503Z,23.75
2022-12-19T12:27:48.181Z,23.63
2022-12-19T12:29:22.899Z,25.58
2022-12-19T12:31:09.795Z,19.92
2022-12-19T12:31:17.510Z,21.58
2022-12-19T12:31:26.820Z,21.30
2022-12-19T12:31:55.325Z,23.52
2022-12-19T12:35:33.274Z,25.75
2022-12-19T12:39:25.431Z,26.67
2022-12-19T12:42:13.658Z,22.98
2022-12-19T12:44:45.832Z,22.27
2022-12-19T12:47:33.733Z,27.08
2022-12-19T12:50:05.598Z,27.75
2022-12-19T12:52:46.000Z,26.85
2022-12-19T12:55:45.743Z,23.33
2022-12-19T12:58:43.377Z,26.13
2022-12-19T13:01:17.604Z,22.08
2022-12-19T13:03:55.212Z,24.88
2022-12-19T13:06:32.292Z,23.77
2022-12-19T13:09:09.900Z,23.88
2022-12-19T13:11:58.571Z,27.05
2022-12-19T13:14:36.845Z,27.45
2022-12-19T13:17:19.441Z,24.77
2022-12-19T13:20:14.760Z,19.58
2022-12-19T13:22:43.318Z,25.50
2022-12-19T13:25:49.630Z,33.90
2022-12-19T13:28:22.125Z,25.08
2022-12-19T13:31:19.372Z,21.05
2022-12-19T13:33:51.764Z,30.05
2022-12-19T13:39:56.170Z,24.98
2022-12-19T13:40:08.683Z,28.25
2022-12-19T13:43:10.860Z,30.95
2022-12-19T13:45:41.548Z,26.88
2022-12-19T13:48:17.222Z,28.38
2022-12-19T13:50:48.012Z,21.00
2022-12-19T13:53:18.478Z,33.17
2022-12-19T13:55:45.444Z,26.70
2022-12-19T13:58:29.432Z,23.58
2022-12-19T14:01:01.366Z,30.65
2022-12-19T14:03:47.657Z,27.33
2022-12-19T14:06:24.115Z,31.75
2022-12-19T14:09:37.377Z,26.35
2022-12-19T14:13:44.018Z,29.80
2022-12-19T14:15:02.714Z,26.98
2022-12-19T14:17:38.739Z,33.53
2022-12-19T14:22:02.675Z,25.98
2022-12-19T14:23:10.681Z,29.90
2022-12-19T14:28:14.182Z,31.52
2022-12-19T14:29:04.506Z,28.27
2022-12-19T14:31:33.221Z,33.05
2022-12-19T14:36:53.301Z,30.90
2022-12-19T14:39:28.776Z,38.47
2022-12-19T14:43:55.756Z,35.03
2022-12-19T14:54:06.173Z,27.63
2022-12-19T14:54:15.327Z,31.95
2022-12-19T14:54:23.894Z,30.35
2022-12-19T15:01:10.314Z,26.33
2022-12-19T15:03:25.128Z,29.25
2022-12-19T15:05:53.223Z,32.28
2022-12-19T15:10:08.822Z,29.95
2022-12-19T15:11:51.294Z,16.40
2022-12-19T15:14:51.501Z,34.28
2022-12-19T15:17:23.605Z,27.02
2022-12-19T15:19:51.343Z,23.58
2022-12-19T15:22:18.802Z,26.10
2022-12-19T15:24:45.602Z,39.13
2022-12-19T15:27:17.105Z,24.63
2022-12-19T15:29:44.691Z,25.08
2022-12-19T15:32:14.973Z,35.15
2022-12-19T15:34:50.471Z,33.28
2022-12-19T15:37:18.437Z,35.30
2022-12-19T15:39:45.693Z,31.25
2022-12-19T15:42:24.966Z,37.40
2022-12-19T15:44:53.575Z,32.03
2022-12-19T15:47:29.863Z,36.05
2022-12-19T15:49:58.279Z,37.00
2022-12-19T15:52:25.777Z,27.98
2022-12-19T15:54:52.525Z,25.67
2022-12-19T15:57:48.186Z,31.45
2022-12-19T16:00:19.601Z,34.55
2022-12-19T16:05:34.447Z,29.17
2022-12-19T16:08:01.125Z,32.58
2022-12-19T16:10:27.809Z,29.67
2022-12-19T16:12:58.345Z,31.63
2022-12-19T16:15:28.224Z,31.85
2022-12-19T16:17:57.546Z,23.08
2022-12-19T16:20:29.883Z,40.47
2022-12-19T16:22:56.938Z,32.00
2022-12-19T16:25:33.928Z,33.58
2022-12-19T16:28:01.882Z,34.67
2022-12-19T16:30:32.675Z,33.08
2022-12-19T16:32:59.688Z,30.27
2022-12-19T16:36:02.347Z,30.15
2022-12-19T16:38:16.149Z,32.10
2022-12-19T16:40:43.332Z,33.95
2022-12-19T16:43:28.630Z,26.98
2022-12-19T16:46:00.575Z,36.90
2022-12-19T16:48:31.488Z,35.63
2022-12-19T16:50:59.196Z,25.50
2022-12-19T16:53:25.973Z,36.33
2022-12-19T16:55:54.162Z,29.65
2022-12-19T16:58:23.833Z,31.02
2022-12-19T17:00:53.101Z,31.45
2022-12-19T17:03:37.367Z,30.45
2022-12-19T17:06:04.552Z,28.27
2022-12-19T17:08:32.606Z,28.75
2022-12-19T17:10:59.506Z,37.70
2022-12-19T17:13:26.840Z,33.67
2022-12-19T17:15:56.952Z,40.58
2022-12-19T17:18:31.653Z,42.35
2022-12-19T17:20:58.258Z,27.52
2022-12-19T17:23:25.881Z,31.10
2022-12-19T17:25:54.951Z,27.35
2022-12-19T17:28:22.000Z,30.20
2022-12-19T17:30:54.870Z,24.75
2022-12-19T17:33:28.893Z,33.58
2022-12-19T17:35:55.648Z,27.90
2022-12-19T17:38:22.282Z,37.83
2022-12-19T17:40:48.888Z,33.38
2022-12-19T17:43:16.724Z,34.03
2022-12-19T17:45:43.550Z,28.33
2022-12-19T17:48:26.105Z,29.80
2022-12-19T17:50:53.296Z,35.65
2022-12-19T17:53:20.157Z,29.77
2022-12-19T17:55:46.925Z,34.25
2022-12-19T17:58:13.526Z,36.40
2022-12-19T18:00:41.716Z,29.42
2022-12-19T18:03:23.857Z,27.05
2022-12-19T18:05:52.568Z,31.88
2022-12-19T18:08:32.554Z,30.17
2022-12-19T18:11:01.670Z,32.58
2022-12-19T18:13:30.001Z,28.42
2022-12-19T18:16:02.363Z,27.08
2022-12-19T18:18:35.676Z,21.65
2022-12-19T18:21:04.291Z,29.23
2022-12-19T18:23:31.011Z,27.90
2022-12-19T18:26:01.975Z,23.75
2022-12-19T18:28:30.133Z,27.55
2022-12-19T18:31:04.379Z,26.10
2022-12-19T18:33:37.190Z,31.73
2022-12-19T18:36:05.581Z,28.50
2022-12-19T18:38:32.172Z,27.73
2022-12-19T18:40:58.851Z,27.33
2022-12-19T18:43:26.005Z,29.08
2022-12-19T18:45:52.936Z,33.13
2022-12-19T18:48:25.977Z,29.85
2022-12-19T18:50:53.778Z,35.33
2022-12-19T18:53:22.099Z,38.30
2022-12-19T18:55:49.777Z,31.60
2022-12-19T18:58:17.889Z,28.80
2022-12-19T19:00:48.363Z,31.25
2022-12-19T19:03:18.173Z,31.02
2022-12-19T19:05:46.969Z,32.45
2022-12-19T19:08:20.261Z,34.60
2022-12-19T19:10:48.256Z,29.15
2022-12-19T19:13:16.791Z,31.42
2022-12-19T19:15:49.461Z,23.98
2022-12-19T19:18:19.921Z,25.38
2022-12-19T19:20:53.111Z,31.45
2022-12-19T19:23:26.119Z,23.98
2022-12-19T19:25:52.939Z,28.38
2022-12-19T19:28:19.704Z,31.88
2022-12-19T19:30:47.027Z,32.08
2022-12-19T19:33:19.820Z,37.78
2022-12-19T19:35:51.017Z,32.70
2022-12-19T19:38:19.569Z,33.28
2022-12-19T19:40:46.155Z,32.85
2022-12-19T19:43:12.754Z,34.45
2022-12-19T19:45:43.502Z,30.60
2022-12-19T19:48:10.505Z,20.42
2022-12-19T19:50:37.237Z,24.60
2022-12-19T19:53:04.665Z,22.58
2022-12-19T19:55:32.745Z,29.95
2022-12-19T19:57:59.404Z,26.42
2022-12-19T20:00:26.071Z,26.67
2022-12-19T20:02:52.852Z,27.33
2022-12-19T20:05:20.274Z,26.95
2022-12-19T20:07:46.869Z,17.58
2022-12-19T20:10:13.497Z,28.50
2022-12-19T20:12:40.149Z,27.40
2022-12-19T20:15:07.722Z,27.02
2022-12-19T20:17:34.396Z,22.90
2022-12-19T20:20:01.068Z,31.92
2022-12-19T20:22:29.252Z,20.23
2022-12-19T20:24:56.784Z,30.08
2022-12-19T20:27:23.690Z,33.80
2022-12-19T20:29:50.311Z,29.02
2022-12-19T20:34:55.735Z,29.95
2022-12-19T20:37:22.363Z,16.83
2022-12-19T20:39:49.012Z,27.60
2022-12-19T20:42:17.945Z,26.60
2022-12-19T20:44:44.537Z,27.42
2022-12-19T20:47:11.244Z,16.23
2022-12-19T20:49:38.256Z,24.65
2022-12-19T20:52:04.898Z,31.58
2022-12-19T20:54:31.824Z,35.90
2022-12-19T20:56:58.438Z,30.17
2022-12-19T20:59:25.340Z,28.08
2022-12-19T21:01:52.127Z,16.58
2022-12-19T21:04:19.016Z,32.22
2022-12-19T21:06:45.784Z,13.73
2022-12-19T21:09:12.502Z,29.70
2022-12-19T21:11:39.090Z,23.20
2022-12-19T21:14:07.111Z,22.83
2022-12-19T21:16:34.254Z,23.15
2022-12-19T21:19:01.025Z,21.98
2022-12-19T21:29:05.150Z,31.05
2022-12-19T21:31:32.055Z,20.05
2022-12-19T21:34:00.989Z,31.95
2022-12-19T21:36:29.197Z,23.75
2022-12-19T21:38:58.391Z,25.88
2022-12-19T21:41:25.509Z,28.95
2022-12-19T21:43:54.071Z,21.38
2022-12-19T21:46:23.628Z,32.78
2022-12-19T21:48:52.436Z,34.53
2022-12-19T21:51:21.308Z,39.90
2022-12-19T21:53:48.710Z,34.47
2022-12-19T21:56:40.587Z,33.00
2022-12-19T21:59:11.599Z,24.23
2022-12-19T22:01:40.091Z,18.45
2022-12-19T22:04:12.600Z,28.92
2022-12-19T22:06:40.067Z,35.72
2022-12-19T22:09:09.185Z,32.67
2022-12-19T22:11:36.592Z,27.10
2022-12-19T22:14:05.213Z,29.70
2022-12-19T22:16:33.193Z,36.20
2022-12-19T22:18:59.869Z,25.27
2022-12-19T22:21:26.983Z,26.58
2022-12-19T22:23:57.715Z,36.17
2022-12-19T22:26:26.053Z,27.13
2022-12-19T22:28:55.419Z,36.75
2022-12-19T22:31:32.533Z,30.55
2022-12-19T22:34:02.103Z,44.42
2022-12-19T22:36:30.919Z,27.55
2022-12-19T22:38:59.602Z,25.42
2022-12-19T22:41:26.819Z,24.88
2022-12-19T22:43:55.547Z,30.02
2022-12-19T22:46:27.982Z,24.38
2022-12-19T22:49:00.011Z,29.92
2022-12-19T22:51:28.079Z,36.67
2022-12-19T22:53:55.170Z,33.72
2022-12-19T22:56:24.425Z,34.67
2022-12-19T22:58:52.866Z,35.00
2022-12-19T23:01:40.498Z,20.75
2022-12-19T23:04:09.532Z,44.72
2022-12-19T23:06:37.692Z,38.08
2022-12-19T23:09:07.183Z,29.98
2022-12-19T23:11:36.776Z,31.80
2022-12-19T23:14:04.784Z,18.20
2022-12-19T23:16:31.577Z,30.42
2022-12-19T23:18:58.273Z,25.40
2022-12-19T23:21:26.433Z,21.00
2022-12-19T23:23:55.587Z,23.05
2022-12-19T23:26:31.143Z,32.55
2022-12-19T23:29:00.373Z,35.70
2022-12-19T23:31:30.246Z,26.58
2022-12-19T23:33:57.371Z,30.40
2022-12-19T23:37:00.530Z,39.60
2022-12-19T23:39:12.020Z,22.42
2022-12-19T23:41:39.577Z,34.47
2022-12-19T23:44:06.294Z,32.17
2022-12-19T23:46:32.916Z,40.05
2022-12-19T23:48:59.757Z,27.50
2022-12-19T23:51:27.503Z,33.42
2022-12-19T23:53:56.037Z,22.42
2022-12-19T23:56:30.884Z,24.27
2022-12-19T23:58:58.439Z,24.80
